Time;durP1;ratioP1;P1;durP2;ratioP2;P2;SDS_P1;SDS_P2;PMS_P1;PMS_P2;Temp;Humidity;BMP_temperature;BMP_pressure;BME280_temperature;BME280_humidity;BME280_pressure;Samples;Min_cycle;Max_cycle;Signal;HPM_P1;HPM_P2
2020/12/13 00:01:28;;;;;;;85.60;24.05;;;;;;;8.27;100.00;100007.28;4964889;28;20037;-71
2020/12/13 00:03:54;;;;;;;79.88;24.17;;;;;;;8.28;100.00;100010.81;4964870;28;20129;-71
2020/12/13 00:06:19;;;;;;;84.40;24.70;;;;;;;8.22;100.00;100001.41;4966739;28;20027;-71
2020/12/13 00:08:45;;;;;;;81.18;25.17;;;;;;;8.27;100.00;100014.50;4968275;28;20046;-71
2020/12/13 00:11:10;;;;;;;85.32;24.98;;;;;;;8.24;100.00;100006.66;4964227;28;20046;-71
2020/12/13 00:13:36;;;;;;;71.95;23.27;;;;;;;8.22;100.00;100011.22;4968332;28;20113;-71
2020/12/13 00:16:02;;;;;;;82.38;23.88;;;;;;;8.22;100.00;100011.22;4964721;28;20043;-71
2020/12/13 00:18:28;;;;;;;83.80;24.80;;;;;;;8.40;100.00;100018.06;4967073;28;20096;-71
2020/12/13 00:20:53;;;;;;;73.70;23.70;;;;;;;8.34;100.00;100021.16;4966328;28;20493;-71
2020/12/13 00:23:19;;;;;;;80.10;24.33;;;;;;;8.27;100.00;100026.00;4967189;28;20481;-71
2020/12/13 00:25:44;;;;;;;77.78;26.02;;;;;;;8.27;100.00;100020.66;4965983;28;20057;-71
2020/12/13 00:28:09;;;;;;;87.28;26.48;;;;;;;8.25;100.00;100024.41;4965108;28;20488;-71
2020/12/13 00:30:35;;;;;;;87.70;26.75;;;;;;;8.29;100.00;100028.59;4967433;28;20061;-71
2020/12/13 00:33:00;;;;;;;91.85;26.20;;;;;;;8.23;100.00;100024.50;4966812;28;20469;-71
2020/12/13 00:35:26;;;;;;;86.13;26.63;;;;;;;8.27;100.00;100030.53;4966402;28;20502;-71
2020/12/13 00:37:52;;;;;;;85.40;25.92;;;;;;;8.23;100.00;100026.31;4963046;28;20048;-71
2020/12/13 00:40:17;;;;;;;84.53;25.52;;;;;;;8.21;100.00;100029.09;4965739;28;20110;-71
2020/12/13 00:42:43;;;;;;;100.70;27.42;;;;;;;8.23;100.00;100042.34;4968442;28;20035;-71
2020/12/13 00:45:08;;;;;;;86.50;28.50;;;;;;;8.33;100.00;100048.88;4968705;28;20577;-71
2020/12/13 00:47:33;;;;;;;98.03;29.58;;;;;;;8.31;100.00;100053.44;4967093;28;20023;-71
2020/12/13 00:49:59;;;;;;;114.35;31.30;;;;;;;8.30;100.00;100057.94;4968762;28;20045;-71
2020/12/13 00:52:25;;;;;;;110.10;30.75;;;;;;;8.39;100.00;100060.00;4964624;28;20050;-71
2020/12/13 00:54:50;;;;;;;92.45;28.80;;;;;;;8.35;100.00;100071.00;4964277;28;20744;-71
2020/12/13 00:57:16;;;;;;;115.97;34.20;;;;;;;8.31;100.00;100072.16;4965607;28;20441;-71
2020/12/13 00:59:42;;;;;;;105.15;28.77;;;;;;;8.25;100.00;100067.19;4965444;28;20067;-71
2020/12/13 01:02:07;;;;;;;116.05;32.67;;;;;;;8.32;100.00;100073.88;4965739;28;20037;-71
2020/12/13 01:04:34;;;;;;;110.45;32.47;;;;;;;8.33;100.00;100070.25;4966741;28;20048;-71
2020/12/13 01:07:05;;;;;;;126.07;35.45;;;;;;;8.29;100.00;100082.06;4969037;28;20045;-71
2020/12/13 01:09:31;;;;;;;111.07;33.10;;;;;;;8.36;100.00;100075.41;4972936;28;20397;-71
2020/12/13 01:11:56;;;;;;;117.32;35.08;;;;;;;8.28;100.00;100081.19;4968179;28;20446;-71
2020/12/13 01:14:24;;;;;;;124.88;34.72;;;;;;;8.41;100.00;100073.28;4969874;28;20477;-71
2020/12/13 01:16:50;;;;;;;106.43;33.50;;;;;;;8.52;100.00;100073.41;4967971;28;20050;-71
2020/12/13 01:19:15;;;;;;;115.30;33.85;;;;;;;8.42;100.00;100072.31;4969196;28;20037;-71
2020/12/13 01:21:40;;;;;;;117.32;34.53;;;;;;;8.40;100.00;100085.78;4984826;28;20525;-71
2020/12/13 01:24:06;;;;;;;123.22;34.25;;;;;;;8.34;100.00;100085.31;4967299;28;20054;-71
2020/12/13 01:26:31;;;;;;;117.70;34.47;;;;;;;8.35;100.00;100076.34;4970156;28;20373;-71
2020/12/13 01:28:57;;;;;;;115.22;35.28;;;;;;;8.34;100.00;100080.84;4969546;28;20042;-71
2020/12/13 01:31:23;;;;;;;118.68;35.22;;;;;;;8.38;100.00;100086.84;4972426;28;20906;-71
2020/12/13 01:33:50;;;;;;;126.90;35.92;;;;;;;8.34;100.00;100093.34;4969496;28;20405;-71
2020/12/13 01:36:18;;;;;;;121.68;33.67;;;;;;;8.31;100.00;100102.44;4965761;28;20035;-71
2020/12/13 01:38:44;;;;;;;118.60;35.47;;;;;;;8.33;100.00;100108.53;4969317;28;20480;-71
2020/12/13 01:41:10;;;;;;;114.60;34.58;;;;;;;8.41;100.00;100108.03;4982886;28;20485;-71
2020/12/13 01:43:36;;;;;;;112.13;33.97;;;;;;;8.33;100.00;100110.38;4969455;28;20034;-70
2020/12/13 01:46:02;;;;;;;108.13;35.13;;;;;;;8.31;100.00;100112.28;4973452;28;20770;-72
2020/12/13 01:48:28;;;;;;;102.20;34.97;;;;;;;8.34;100.00;100114.72;4969267;28;20042;-71
2020/12/13 01:53:25;;;;;;;109.40;35.13;;;;;;;8.28;100.00;100118.63;4970425;28;20460;-71
2020/12/13 01:55:56;;;;;;;99.10;33.78;;;;;;;8.29;100.00;100124.84;4967182;28;20078;-71
2020/12/13 01:58:32;;;;;;;105.80;35.10;;;;;;;8.34;100.00;100128.09;4965674;28;20477;-71
2020/12/13 02:01:03;;;;;;;109.47;34.55;;;;;;;8.33;100.00;100126.41;4967196;28;20035;-71
2020/12/13 02:03:36;;;;;;;92.03;31.83;;;;;;;8.28;100.00;100123.97;4967771;28;20497;-70
2020/12/13 02:06:09;;;;;;;101.85;34.35;;;;;;;8.34;100.00;100133.44;4967889;28;20065;-71
2020/12/13 02:08:40;;;;;;;100.35;34.28;;;;;;;8.34;100.00;100131.63;4968611;28;20046;-71
2020/12/13 02:11:07;;;;;;;96.57;33.80;;;;;;;8.32;100.00;100146.09;4967862;28;20505;-71
2020/12/13 02:13:32;;;;;;;95.93;32.72;;;;;;;8.34;100.00;100139.66;4970428;28;21539;-71
2020/12/13 02:15:59;;;;;;;83.78;31.95;;;;;;;8.40;100.00;100147.28;4968852;28;20030;-71
2020/12/13 02:18:25;;;;;;;86.72;33.80;;;;;;;8.49;100.00;100153.88;4963147;28;20038;-71
2020/12/13 02:20:50;;;;;;;88.03;31.55;;;;;;;8.41;100.00;100161.53;4968003;28;20034;-71
2020/12/13 02:23:16;;;;;;;87.20;33.05;;;;;;;8.38;100.00;100161.72;4983515;28;20066;-71
2020/12/13 02:25:42;;;;;;;80.43;32.80;;;;;;;8.40;100.00;100166.00;4968617;28;20031;-71
2020/12/13 02:28:07;;;;;;;85.68;33.35;;;;;;;8.31;100.00;100168.41;4959488;28;20201;-71
2020/12/13 02:30:32;;;;;;;79.95;32.30;;;;;;;8.32;100.00;100188.88;4969741;28;20489;-71
2020/12/13 02:32:58;;;;;;;83.22;33.58;;;;;;;8.43;100.00;100178.34;4967509;28;20057;-71
2020/12/13 02:35:24;;;;;;;82.30;32.72;;;;;;;8.46;100.00;100175.44;4967012;28;20393;-71
2020/12/13 02:37:50;;;;;;;75.55;30.05;;;;;;;8.32;100.00;100180.84;4971021;28;20513;-71
2020/12/13 02:40:16;;;;;;;76.00;29.42;;;;;;;8.36;100.00;100185.88;4967455;28;20035;-71
2020/12/13 02:42:41;;;;;;;72.22;29.77;;;;;;;8.46;100.00;100191.50;4968089;28;20038;-71
2020/12/13 02:45:07;;;;;;;69.15;29.92;;;;;;;8.39;100.00;100192.88;4967780;28;20259;-71
2020/12/13 02:47:32;;;;;;;72.13;27.77;;;;;;;8.39;100.00;100190.19;4969674;28;20035;-71
2020/12/13 02:49:58;;;;;;;72.55;28.77;;;;;;;8.36;100.00;100190.38;4968344;28;20039;-71
2020/12/13 02:52:23;;;;;;;73.15;29.30;;;;;;;8.42;100.00;100187.31;4966889;28;20035;-71
2020/12/13 02:54:48;;;;;;;74.82;29.70;;;;;;;8.54;100.00;100189.19;4967337;28;20031;-71
2020/12/13 02:57:14;;;;;;;68.80;27.52;;;;;;;8.46;100.00;100186.16;4967158;28;20030;-70
2020/12/13 02:59:39;;;;;;;69.80;27.95;;;;;;;8.51;100.00;100190.28;4966722;28;20038;-71
2020/12/13 03:02:05;;;;;;;78.47;29.30;;;;;;;8.49;100.00;100185.97;4967636;28;20038;-71
2020/12/13 03:04:30;;;;;;;70.78;28.40;;;;;;;8.38;100.00;100188.47;4983545;28;20047;-71
2020/12/13 03:06:55;;;;;;;75.28;28.67;;;;;;;8.34;100.00;100192.28;4967213;28;20031;-71
2020/12/13 03:09:21;;;;;;;70.60;28.80;;;;;;;8.40;100.00;100191.88;4964407;28;20504;-72
2020/12/13 03:11:46;;;;;;;69.50;27.90;;;;;;;8.39;100.00;100203.56;4969312;28;20081;-71
2020/12/13 03:14:12;;;;;;;75.00;29.02;;;;;;;8.38;100.00;100199.16;4982633;28;20042;-71
2020/12/13 03:16:37;;;;;;;71.03;27.23;;;;;;;8.39;100.00;100211.59;4969904;28;20458;-71
2020/12/13 03:19:03;;;;;;;78.55;28.55;;;;;;;8.45;100.00;100213.88;4967302;28;20575;-71
2020/12/13 03:21:29;;;;;;;72.07;28.77;;;;;;;8.51;100.00;100216.16;4967160;28;20039;-71
2020/12/13 03:23:55;;;;;;;71.75;28.98;;;;;;;8.52;100.00;100213.38;4964789;28;20453;-71
2020/12/13 03:26:20;;;;;;;70.00;27.98;;;;;;;8.45;100.00;100213.88;4966255;28;20031;-71
2020/12/13 03:28:45;;;;;;;76.50;28.80;;;;;;;8.55;100.00;100216.81;4967040;28;20070;-70
2020/12/13 03:31:11;;;;;;;64.32;27.80;;;;;;;8.40;100.00;100218.63;4968040;28;20042;-71
2020/12/13 03:33:36;;;;;;;76.93;30.42;;;;;;;8.49;100.00;100213.56;4964381;28;20066;-71
2020/12/13 03:36:02;;;;;;;68.53;27.98;;;;;;;8.50;100.00;100222.47;4964903;28;20114;-71
2020/12/13 03:38:27;;;;;;;70.35;30.92;;;;;;;8.44;100.00;100228.19;4974696;28;20569;-71
2020/12/13 03:40:53;;;;;;;66.63;27.05;;;;;;;8.47;100.00;100226.19;4967003;28;20477;-71
2020/12/13 03:43:18;;;;;;;66.22;27.73;;;;;;;8.41;100.00;100233.72;4967217;28;20043;-71
2020/12/13 03:45:43;;;;;;;70.38;27.45;;;;;;;8.43;100.00;100234.50;4966759;28;20030;-71
2020/12/13 03:48:09;;;;;;;62.88;26.60;;;;;;;8.44;100.00;100229.06;4965348;28;20030;-72
2020/12/13 03:50:40;;;;;;;68.93;27.70;;;;;;;8.40;100.00;100226.66;4966988;28;20042;-70
2020/12/13 03:53:08;;;;;;;64.65;27.08;;;;;;;8.42;100.00;100227.44;4965480;28;20031;-71
2020/12/13 03:55:34;;;;;;;68.35;28.42;;;;;;;8.30;100.00;100229.06;4966906;28;20034;-71
2020/12/13 03:57:59;;;;;;;73.68;28.95;;;;;;;8.30;100.00;100239.75;4966076;28;20054;-71
2020/12/13 04:00:27;;;;;;;74.82;28.70;;;;;;;8.44;100.00;100241.56;4967737;28;20089;-71
2020/12/13 04:02:56;;;;;;;73.13;26.52;;;;;;;8.42;100.00;100243.47;4964873;28;20031;-71
2020/12/13 04:05:23;;;;;;;58.85;25.30;;;;;;;8.52;100.00;100249.94;4966460;28;20035;-71
2020/12/13 04:07:49;;;;;;;68.00;26.52;;;;;;;8.46;100.00;100243.19;4967154;28;20018;-71
2020/12/13 04:10:14;;;;;;;73.45;27.17;;;;;;;8.34;100.00;100251.09;4967067;28;20426;-71
2020/12/13 04:12:39;;;;;;;61.72;25.73;;;;;;;8.31;100.00;100248.63;4966167;28;20042;-71
2020/12/13 04:15:05;;;;;;;75.88;27.08;;;;;;;8.35;100.00;100252.81;4964457;28;20088;-71
2020/12/13 04:17:30;;;;;;;72.53;25.52;;;;;;;8.39;100.00;100255.22;4965527;28;20457;-71
2020/12/13 04:19:56;;;;;;;60.80;24.75;;;;;;;8.53;100.00;100257.03;4966266;28;20131;-71
2020/12/13 04:22:21;;;;;;;60.22;24.58;;;;;;;8.55;100.00;100263.13;4963191;28;20069;-71
2020/12/13 04:24:47;;;;;;;59.70;23.20;;;;;;;8.44;100.00;100257.63;4966182;28;20026;-71
2020/12/13 04:27:12;;;;;;;61.08;23.38;;;;;;;8.37;100.00;100266.97;4966176;28;20068;-71
2020/12/13 04:29:37;;;;;;;55.33;22.25;;;;;;;8.44;100.00;100268.31;4965951;28;20034;-71
2020/12/13 04:32:03;;;;;;;58.22;23.40;;;;;;;8.42;100.00;100273.75;4964248;28;20031;-71
2020/12/13 04:34:28;;;;;;;63.70;23.17;;;;;;;8.41;100.00;100263.13;4980573;28;20652;-71
2020/12/13 04:36:53;;;;;;;65.85;23.90;;;;;;;8.37;100.00;100272.31;4966499;28;20031;-71
2020/12/13 04:39:19;;;;;;;62.95;23.77;;;;;;;8.33;100.00;100270.81;4966300;28;20038;-71
2020/12/13 04:41:45;;;;;;;62.28;24.27;;;;;;;8.30;100.00;100278.97;4976429;28;20211;-71
2020/12/13 04:44:11;;;;;;;65.43;24.08;;;;;;;8.27;100.00;100281.84;4967400;28;20039;-71
2020/12/13 04:46:40;;;;;;;58.78;24.17;;;;;;;8.33;100.00;100286.84;4972135;28;20114;-71
2020/12/13 04:49:05;;;;;;;58.70;24.23;;;;;;;8.34;100.00;100288.53;4972496;28;20045;-71
2020/12/13 04:51:33;;;;;;;60.30;23.00;;;;;;;8.29;100.00;100279.91;4970865;28;20268;-71
2020/12/13 04:54:05;;;;;;;55.22;21.73;;;;;;;8.40;100.00;100288.16;4970091;28;20034;-71
2020/12/13 04:56:36;;;;;;;54.47;22.30;;;;;;;8.38;100.00;100290.97;4969526;28;20030;-71
2020/12/13 04:59:03;;;;;;;50.33;22.27;;;;;;;8.35;100.00;100298.28;4972363;28;20556;-71
2020/12/13 05:01:29;;;;;;;51.83;21.70;;;;;;;8.37;100.00;100301.75;4971031;28;20041;-71
2020/12/13 05:03:55;;;;;;;45.13;20.10;;;;;;;8.27;100.00;100297.88;4972486;28;20493;-71
2020/12/13 05:06:21;;;;;;;46.10;21.08;;;;;;;8.29;100.00;100306.66;4972301;28;20224;-71
2020/12/13 05:08:49;;;;;;;45.30;21.17;;;;;;;8.46;100.00;100314.53;4972568;28;20047;-71
2020/12/13 05:11:15;;;;;;;49.35;20.58;;;;;;;8.37;100.00;100315.97;4972836;28;20237;-71
2020/12/13 05:13:41;;;;;;;48.25;21.58;;;;;;;8.45;100.00;100311.03;4971633;28;20401;-71
2020/12/13 05:16:08;;;;;;;50.20;21.30;;;;;;;8.37;100.00;100312.44;4971482;28;20069;-71
2020/12/13 05:18:38;;;;;;;43.90;20.25;;;;;;;8.33;100.00;100325.13;4974093;28;20065;-72
2020/12/13 05:21:04;;;;;;;43.03;21.00;;;;;;;8.30;100.00;100324.44;4970955;28;20093;-71
2020/12/13 05:23:31;;;;;;;44.25;21.05;;;;;;;8.42;100.00;100326.38;4973846;28;20034;-71
2020/12/13 05:25:56;;;;;;;46.25;20.95;;;;;;;8.35;100.00;100333.06;4972318;28;20517;-71
2020/12/13 05:28:23;;;;;;;42.45;19.70;;;;;;;8.39;100.00;100347.97;4973018;28;20042;-71
2020/12/13 05:30:49;;;;;;;51.83;22.17;;;;;;;8.43;100.00;100342.34;4973917;28;20050;-72
2020/12/13 05:33:33;;;;;;;59.60;24.88;;;;;;;8.52;100.00;100335.53;4974120;28;20043;-71
2020/12/13 05:36:04;;;;;;;64.57;27.38;;;;;;;8.49;100.00;100347.31;4971609;28;20035;-71
2020/12/13 05:38:39;;;;;;;85.00;35.90;;;;;;;8.44;100.00;100345.88;4969942;28;20035;-71
2020/12/13 05:41:05;;;;;;;109.05;51.25;;;;;;;8.37;100.00;100349.88;4970370;28;20058;-71
2020/12/13 05:43:42;;;;;;;189.05;93.35;;;;;;;8.44;100.00;100348.53;4971289;28;20624;-71
2020/12/13 05:53:53;;;;;;;118.28;60.22;;;;;;;8.36;100.00;100358.84;4967939;28;20035;-72
2020/12/13 05:56:20;;;;;;;125.63;64.38;;;;;;;8.26;100.00;100360.34;4968788;28;20043;-71
2020/12/13 05:58:45;;;;;;;107.28;54.95;;;;;;;8.38;100.00;100370.31;4971639;28;20045;-71
2020/12/13 06:01:15;;;;;;;77.40;40.03;;;;;;;8.24;100.00;100367.56;4969093;28;20026;-71
2020/12/13 06:03:44;;;;;;;60.03;31.63;;;;;;;8.31;100.00;100369.81;4967426;28;20480;-73
2020/12/13 06:06:10;;;;;;;59.08;27.23;;;;;;;8.30;100.00;100372.56;4971345;28;20494;-73
2020/12/13 06:09:01;;;;;;;55.25;24.95;;;;;;;8.26;100.00;100376.38;4968793;28;20086;-73
2020/12/13 06:11:53;;;;;;;49.90;24.55;;;;;;;8.35;100.00;100383.84;4980526;28;20038;-73
2020/12/13 06:14:21;;;;;;;55.88;25.80;;;;;;;8.30;100.00;100383.25;4969445;28;20050;-73
2020/12/13 06:16:48;;;;;;;53.70;25.35;;;;;;;8.27;100.00;100388.78;4968496;28;20063;-73
2020/12/13 06:19:24;;;;;;;55.40;25.92;;;;;;;8.26;100.00;100397.78;4966699;28;20191;-73
2020/12/13 06:21:51;;;;;;;54.75;25.40;;;;;;;8.25;100.00;100390.69;4969090;28;20481;-74
2020/12/13 06:24:16;;;;;;;58.60;25.65;;;;;;;8.19;100.00;100397.28;4970117;28;20039;-73
2020/12/13 06:26:43;;;;;;;55.90;24.40;;;;;;;8.23;100.00;100393.44;4971379;28;20038;-73
2020/12/13 06:29:09;;;;;;;53.45;23.55;;;;;;;8.17;100.00;100398.31;4970355;28;20035;-73
2020/12/13 06:31:36;;;;;;;61.50;24.80;;;;;;;8.22;100.00;100396.22;4966966;28;20053;-73
2020/12/13 06:34:02;;;;;;;49.95;21.73;;;;;;;8.09;100.00;100402.28;4964877;28;20432;-73
2020/12/13 06:36:28;;;;;;;46.97;21.30;;;;;;;8.11;100.00;100402.19;4967649;28;20045;-73
2020/12/13 06:38:56;;;;;;;44.20;20.92;;;;;;;8.09;100.00;100402.28;4968464;28;20039;-73
2020/12/13 06:41:26;;;;;;;43.70;21.50;;;;;;;8.09;100.00;100407.63;4966882;28;20619;-73
2020/12/13 06:43:54;;;;;;;45.72;19.92;;;;;;;8.20;100.00;100408.81;4967903;28;20039;-73
2020/12/13 06:46:23;;;;;;;43.65;19.90;;;;;;;8.09;100.00;100414.78;4973131;28;20636;-73
2020/12/13 06:48:49;;;;;;;41.47;19.70;;;;;;;8.11;100.00;100411.09;4970270;28;20061;-73
2020/12/13 06:51:25;;;;;;;45.65;19.98;;;;;;;8.05;100.00;100422.13;4966609;28;20031;-73
2020/12/13 06:53:51;;;;;;;36.25;18.23;;;;;;;8.00;100.00;100424.22;4968992;28;20042;-73
2020/12/13 06:56:18;;;;;;;37.70;18.60;;;;;;;8.10;100.00;100425.41;4967824;28;20042;-73
2020/12/13 06:58:56;;;;;;;45.08;18.27;;;;;;;8.00;100.00;100420.69;4967520;28;20046;-73
2020/12/13 07:01:32;;;;;;;39.28;17.60;;;;;;;8.07;100.00;100424.72;4965560;28;20409;-73
2020/12/13 07:04:20;;;;;;;42.80;19.08;;;;;;;8.09;100.00;100418.31;4969018;28;20047;-73
2020/12/13 07:06:58;;;;;;;35.92;18.48;;;;;;;8.05;100.00;100422.13;4963022;28;20084;-73
2020/12/13 07:09:25;;;;;;;50.42;19.15;;;;;;;8.05;100.00;100432.81;4966138;28;20038;-73
2020/12/13 07:11:51;;;;;;;41.55;18.20;;;;;;;7.99;100.00;100430.50;4973134;28;20047;-73
2020/12/13 07:14:17;;;;;;;38.90;18.52;;;;;;;7.95;100.00;100428.97;4968888;28;20034;-73
2020/12/13 07:16:46;;;;;;;51.15;20.80;;;;;;;7.84;100.00;100439.41;4966049;28;20041;-73
2020/12/13 07:19:17;;;;;;;64.75;24.88;;;;;;;7.98;100.00;100431.47;4966053;28;20065;-73
2020/12/13 07:21:44;;;;;;;90.35;34.25;;;;;;;7.95;100.00;100433.47;4967601;28;20034;-73
2020/12/13 07:24:10;;;;;;;88.50;33.00;;;;;;;7.89;100.00;100437.34;4966169;28;20027;-73
2020/12/13 07:26:38;;;;;;;125.97;39.80;;;;;;;7.91;100.00;100435.44;4966422;28;20041;-73
2020/12/13 07:29:14;;;;;;;258.10;68.45;;;;;;;7.89;100.00;100440.03;4966782;28;20054;-72
2020/12/13 07:31:43;;;;;;;116.70;35.90;;;;;;;7.88;100.00;100438.28;4968912;28;20146;-73
2020/12/13 07:34:10;;;;;;;139.23;42.67;;;;;;;7.88;100.00;100440.97;4951781;28;20145;-72
2020/12/13 07:36:35;;;;;;;85.72;28.08;;;;;;;7.83;100.00;100437.72;4966825;28;20034;-73
2020/12/13 07:39:04;;;;;;;58.15;21.98;;;;;;;7.84;100.00;100444.75;4966569;28;20053;-73
2020/12/13 07:41:29;;;;;;;79.47;27.92;;;;;;;7.70;100.00;100447.38;4964540;28;20038;-73
2020/12/13 07:44:06;;;;;;;201.27;61.65;;;;;;;7.74;100.00;100451.56;4968326;28;20027;-73
2020/12/13 07:46:33;;;;;;;84.10;30.08;;;;;;;7.83;100.00;100459.09;4962354;28;20054;-73
2020/12/13 07:49:19;;;;;;;62.78;26.23;;;;;;;7.71;100.00;100459.78;4972879;28;20469;-73
2020/12/13 07:51:46;;;;;;;31.88;17.42;;;;;;;7.69;100.00;100467.00;4966631;28;20615;-73
2020/12/13 07:54:17;;;;;;;40.90;19.42;;;;;;;7.70;100.00;100471.41;4964654;28;20042;-73
2020/12/13 07:56:44;;;;;;;45.35;18.98;;;;;;;7.65;100.00;100476.16;4966446;28;20038;-73
2020/12/13 07:59:14;;;;;;;41.38;18.00;;;;;;;7.70;100.00;100479.44;4967126;28;20117;-73
2020/12/13 08:01:41;;;;;;;37.45;15.10;;;;;;;7.64;100.00;100482.44;4963270;28;20090;-73
2020/12/13 08:04:07;;;;;;;29.90;14.52;;;;;;;7.62;100.00;100489.66;4966172;28;20121;-73
2020/12/13 08:06:33;;;;;;;33.67;14.07;;;;;;;7.68;100.00;100483.97;4970578;28;20125;-73
2020/12/13 08:08:59;;;;;;;33.35;16.30;;;;;;;7.59;100.00;100488.00;4981012;28;20039;-72
2020/12/13 08:11:25;;;;;;;44.17;20.40;;;;;;;7.68;100.00;100500.00;4968927;28;20402;-73
2020/12/13 08:13:53;;;;;;;36.88;18.38;;;;;;;7.58;100.00;100496.13;4966649;28;20106;-73
2020/12/13 08:16:22;;;;;;;35.25;15.52;;;;;;;7.57;100.00;100505.09;4967136;28;20033;-72
2020/12/13 08:18:50;;;;;;;38.72;16.15;;;;;;;7.54;100.00;100515.94;4965264;28;20043;-73
2020/12/13 08:21:50;;;;;;;39.92;16.20;;;;;;;7.57;100.00;100505.09;4964397;28;20026;-72
2020/12/13 08:24:16;;;;;;;37.50;14.98;;;;;;;7.57;100.00;100507.75;4966599;28;20486;-73
2020/12/13 08:26:43;;;;;;;36.70;13.98;;;;;;;7.53;100.00;100519.56;4966039;28;20385;-73
2020/12/13 08:29:10;;;;;;;28.63;13.57;;;;;;;7.52;100.00;100520.50;4964915;28;20031;-72
2020/12/13 08:31:35;;;;;;;32.30;13.45;;;;;;;7.52;100.00;100524.06;4964707;28;20027;-73
2020/12/13 08:34:07;;;;;;;34.15;13.82;;;;;;;7.59;100.00;100524.56;4965532;28;20081;-72
2020/12/13 08:36:34;;;;;;;31.27;14.30;;;;;;;7.62;100.00;100527.06;4968201;28;20043;-73
2020/12/13 08:39:06;;;;;;;28.55;11.77;;;;;;;7.51;100.00;100524.13;4966537;28;20039;-72
2020/12/13 08:41:32;;;;;;;29.67;12.80;;;;;;;7.52;100.00;100528.53;4967251;28;20039;-72
2020/12/13 08:43:58;;;;;;;27.00;11.25;;;;;;;7.63;100.00;100528.78;4964877;28;20089;-73
2020/12/13 08:46:41;;;;;;;26.88;11.90;;;;;;;7.50;100.00;100530.41;4965283;28;20501;-73
2020/12/13 08:49:07;;;;;;;30.70;12.40;;;;;;;7.55;100.00;100533.69;4963738;28;20093;-73
2020/12/13 08:51:33;;;;;;;30.15;12.20;;;;;;;7.51;100.00;100537.47;4964063;28;20038;-72
2020/12/13 08:54:01;;;;;;;26.88;11.00;;;;;;;7.53;100.00;100538.28;4966519;28;20042;-73
2020/12/13 08:56:36;;;;;;;31.08;11.32;;;;;;;7.53;100.00;100551.63;4974942;28;20043;-73
2020/12/13 08:59:04;;;;;;;28.73;11.38;;;;;;;7.46;100.00;100547.56;4962594;28;20039;-73
2020/12/13 09:01:33;;;;;;;28.23;12.85;;;;;;;7.53;100.00;100551.63;4964206;28;20407;-73
2020/12/13 09:03:58;;;;;;;26.73;11.50;;;;;;;7.58;100.00;100554.91;4966003;28;20551;-73
2020/12/13 09:06:29;;;;;;;26.35;11.10;;;;;;;7.54;100.00;100554.19;4965652;28;20035;-73
2020/12/13 09:09:07;;;;;;;28.52;11.57;;;;;;;7.51;100.00;100551.69;4966522;28;20122;-73
2020/12/13 09:11:32;;;;;;;26.15;11.50;;;;;;;7.57;100.00;100555.84;4963303;28;20429;-73
2020/12/13 09:13:58;;;;;;;24.83;10.40;;;;;;;7.57;100.00;100553.16;4965492;28;20023;-73
2020/12/13 09:16:25;;;;;;;23.60;11.25;;;;;;;7.55;100.00;100565.72;4965394;28;20035;-73
2020/12/13 09:19:10;;;;;;;30.33;11.50;;;;;;;7.57;100.00;100571.88;4961798;28;20324;-72
2020/12/13 09:21:51;;;;;;;24.48;10.38;;;;;;;7.59;100.00;100578.00;4966250;28;20046;-73
2020/12/13 09:24:20;;;;;;;24.17;10.63;;;;;;;7.57;100.00;100574.53;4964741;28;20043;-73
2020/12/13 09:27:09;;;;;;;28.13;11.27;;;;;;;7.72;100.00;100569.19;4967759;28;20109;-73
2020/12/13 09:29:37;;;;;;;28.75;10.55;;;;;;;7.65;100.00;100572.31;4967073;28;20407;-73
2020/12/13 09:32:04;;;;;;;23.73;9.90;;;;;;;7.78;100.00;100577.84;4968358;28;20038;-73
2020/12/13 09:34:30;;;;;;;27.63;10.20;;;;;;;7.76;100.00;100580.59;4968239;28;20088;-72
2020/12/13 09:36:56;;;;;;;22.38;9.60;;;;;;;7.87;100.00;100580.88;4967165;28;20441;-73
2020/12/13 09:39:21;;;;;;;17.08;9.00;;;;;;;7.92;100.00;100581.47;4965981;28;20034;-73
2020/12/13 09:41:47;;;;;;;28.30;10.50;;;;;;;7.88;100.00;100590.63;4966221;28;20501;-72
2020/12/13 09:44:12;;;;;;;35.95;13.25;;;;;;;7.90;100.00;100586.03;4968106;28;20058;-72
2020/12/13 09:46:38;;;;;;;132.93;36.28;;;;;;;7.93;100.00;100590.34;4974633;28;20035;-73
2020/12/13 09:49:04;;;;;;;192.77;45.92;;;;;;;7.96;100.00;100591.03;4968749;28;20042;-72
2020/12/13 09:51:29;;;;;;;126.07;39.80;;;;;;;7.99;100.00;100593.53;4969667;28;20046;-73
2020/12/13 09:53:55;;;;;;;96.15;32.38;;;;;;;7.97;100.00;100598.09;4969182;28;20034;-72
2020/12/13 09:56:20;;;;;;;43.35;19.35;;;;;;;8.03;100.00;100592.41;4969201;28;20042;-72
2020/12/13 09:58:46;;;;;;;26.90;11.13;;;;;;;8.07;100.00;100591.31;4968620;28;20299;-73
2020/12/13 10:01:13;;;;;;;23.77;10.75;;;;;;;8.09;100.00;100600.09;4945899;28;20035;-72
2020/12/13 10:03:42;;;;;;;25.73;10.25;;;;;;;8.04;100.00;100601.31;4966766;28;20093;-72
2020/12/13 10:09:02;;;;;;;34.20;9.38;;;;;;;8.16;100.00;100610.44;4967940;28;20399;-73
2020/12/13 10:11:29;;;;;;;23.63;8.80;;;;;;;8.26;100.00;100603.66;4969790;28;20038;-73
2020/12/13 10:13:55;;;;;;;25.05;9.25;;;;;;;8.31;100.00;100612.31;4967717;28;20125;-72
2020/12/13 10:16:21;;;;;;;33.30;13.30;;;;;;;8.34;100.00;100610.31;4967103;28;20434;-72
2020/12/13 10:18:46;;;;;;;30.75;9.57;;;;;;;8.38;100.00;100603.84;4968605;28;20034;-73
2020/12/13 10:21:12;;;;;;;28.65;9.75;;;;;;;8.34;100.00;100604.09;4968296;28;20046;-73
2020/12/13 10:23:37;;;;;;;20.98;9.65;;;;;;;8.28;100.00;100610.63;4966217;28;20042;-73
2020/12/13 10:26:03;;;;;;;21.17;8.90;;;;;;;8.29;100.00;100614.16;4969120;28;20102;-73
2020/12/13 10:28:28;;;;;;;26.08;9.10;;;;;;;8.26;100.00;100609.00;4968435;28;20022;-73
2020/12/13 10:30:53;;;;;;;23.33;9.13;;;;;;;8.32;100.00;100617.56;4970410;28;20435;-72
2020/12/13 10:33:19;;;;;;;22.38;9.43;;;;;;;8.46;100.00;100622.97;4966774;28;20043;-72
2020/12/13 10:35:45;;;;;;;16.45;9.70;;;;;;;8.40;100.00;100614.44;4965694;28;20089;-72
2020/12/13 10:38:11;;;;;;;27.75;12.05;;;;;;;8.47;100.00;100618.50;4965315;28;20037;-72
2020/12/13 10:40:40;;;;;;;24.80;11.25;;;;;;;8.43;100.00;100615.16;4952457;28;20043;-72
2020/12/13 10:43:05;;;;;;;33.78;9.40;;;;;;;8.47;100.00;100610.47;4968488;28;20319;-72
2020/12/13 10:45:32;;;;;;;18.95;9.00;;;;;;;8.58;100.00;100617.91;4967589;28;20385;-72
2020/12/13 10:47:57;;;;;;;19.80;9.88;;;;;;;8.64;100.00;100623.72;4970598;28;20027;-73
2020/12/13 10:50:23;;;;;;;20.20;8.32;;;;;;;8.72;100.00;100615.25;4965628;28;20523;-72
2020/12/13 10:52:48;;;;;;;19.52;8.25;;;;;;;8.71;100.00;100619.75;4965767;28;20040;-73
2020/12/13 10:55:15;;;;;;;20.20;7.35;;;;;;;8.74;100.00;100616.91;4967661;28;20493;-73
2020/12/13 10:57:42;;;;;;;19.90;6.57;;;;;;;8.84;100.00;100610.06;4966547;28;20031;-73
2020/12/13 11:00:09;;;;;;;16.52;7.00;;;;;;;8.78;100.00;100609.56;4967370;28;20401;-72
2020/12/13 11:02:35;;;;;;;14.35;7.32;;;;;;;8.73;100.00;100611.66;4966484;28;20038;-72
2020/12/13 11:05:00;;;;;;;18.35;6.55;;;;;;;8.68;100.00;100609.25;4965176;28;20053;-72
2020/12/13 11:07:27;;;;;;;20.55;6.10;;;;;;;8.76;100.00;100607.00;4964183;28;20033;-70
2020/12/13 11:09:52;;;;;;;13.68;6.78;;;;;;;8.83;98.10;100602.97;4967180;28;20452;-70
2020/12/13 11:12:18;;;;;;;13.75;6.07;;;;;;;8.74;98.85;100600.84;4981275;28;20043;-73
2020/12/13 11:14:44;;;;;;;12.20;5.03;;;;;;;8.67;98.96;100598.63;4967393;28;20031;-73
2020/12/13 11:17:09;;;;;;;20.08;8.40;;;;;;;8.86;97.53;100602.81;4966047;28;20039;-72
2020/12/13 11:19:34;;;;;;;21.63;8.80;;;;;;;8.74;98.80;100594.63;4966134;28;20080;-73
2020/12/13 11:22:00;;;;;;;13.07;5.25;;;;;;;8.86;95.60;100592.09;4958324;28;20039;-72
2020/12/13 11:24:27;;;;;;;10.70;4.93;;;;;;;8.77;96.30;100581.94;4967451;28;20046;-73